sensor_id;sensor_type;location;lat;lon;timestamp;pressure;altitude;pressure_sealevel;temperature
67515;BMP280;60646;55.802;37.032;2023-07-31T00:00:35;98989.72;;;19.91
67515;BMP280;60646;55.802;37.032;2023-07-31T00:03:01;98985.44;;;19.88
67515;BMP280;60646;55.802;37.032;2023-07-31T00:05:27;98987.28;;;19.85
67515;BMP280;60646;55.802;37.032;2023-07-31T00:07:53;98980.69;;;19.79
67515;BMP280;60646;55.802;37.032;2023-07-31T00:10:20;98976.56;;;19.78
67515;BMP280;60646;55.802;37.032;2023-07-31T00:12:47;98976.41;;;19.76
67515;BMP280;60646;55.802;37.032;2023-07-31T00:15:14;98973.50;;;19.74
67515;BMP280;60646;55.802;37.032;2023-07-31T00:17:40;98977.81;;;19.77
67515;BMP280;60646;55.802;37.032;2023-07-31T00:20:07;98982.53;;;19.76
67515;BMP280;60646;55.802;37.032;2023-07-31T00:22:35;98973.69;;;19.76
67515;BMP280;60646;55.802;37.032;2023-07-31T00:25:02;98981.81;;;19.76
67515;BMP280;60646;55.802;37.032;2023-07-31T00:27:30;98975.38;;;19.71
67515;BMP280;60646;55.802;37.032;2023-07-31T00:29:57;98999.50;;;19.77
67515;BMP280;60646;55.802;37.032;2023-07-31T00:32:25;98998.09;;;19.76
67515;BMP280;60646;55.802;37.032;2023-07-31T00:34:51;98991.78;;;19.73
67515;BMP280;60646;55.802;37.032;2023-07-31T00:37:17;98970.47;;;19.60
67515;BMP280;60646;55.802;37.032;2023-07-31T00:39:42;98979.06;;;19.66
67515;BMP280;60646;55.802;37.032;2023-07-31T00:42:08;98989.19;;;19.66
67515;BMP280;60646;55.802;37.032;2023-07-31T00:44:34;98977.88;;;19.59
67515;BMP280;60646;55.802;37.032;2023-07-31T00:47:00;98970.88;;;19.56
67515;BMP280;60646;55.802;37.032;2023-07-31T00:49:27;98984.28;;;19.54
67515;BMP280;60646;55.802;37.032;2023-07-31T00:51:53;98980.00;;;19.51
67515;BMP280;60646;55.802;37.032;2023-07-31T00:54:20;98986.69;;;19.50
67515;BMP280;60646;55.802;37.032;2023-07-31T00:56:46;98977.41;;;19.53
67515;BMP280;60646;55.802;37.032;2023-07-31T00:59:14;98978.25;;;19.46
67515;BMP280;60646;55.802;37.032;2023-07-31T01:01:40;98967.50;;;19.39
67515;BMP280;60646;55.802;37.032;2023-07-31T01:04:07;98970.06;;;19.37
67515;BMP280;60646;55.802;37.032;2023-07-31T01:06:39;98971.38;;;19.45
67515;BMP280;60646;55.802;37.032;2023-07-31T01:09:08;98975.06;;;19.40
67515;BMP280;60646;55.802;37.032;2023-07-31T01:11:43;98967.91;;;19.35
67515;BMP280;60646;55.802;37.032;2023-07-31T01:14:12;98955.59;;;19.25
67515;BMP280;60646;55.802;37.032;2023-07-31T01:16:38;98952.59;;;19.21
67515;BMP280;60646;55.802;37.032;2023-07-31T01:19:06;98963.00;;;19.24
67515;BMP280;60646;55.802;37.032;2023-07-31T01:26:38;98967.41;;;19.20
67515;BMP280;60646;55.802;37.032;2023-07-31T01:31:48;98964.22;;;19.14
67515;BMP280;60646;55.802;37.032;2023-07-31T01:34:17;98970.53;;;19.16
67515;BMP280;60646;55.802;37.032;2023-07-31T01:36:43;98962.44;;;19.09
67515;BMP280;60646;55.802;37.032;2023-07-31T01:39:09;98978.66;;;19.16
67515;BMP280;60646;55.802;37.032;2023-07-31T01:41:35;98967.88;;;19.09
67515;BMP280;60646;55.802;37.032;2023-07-31T01:44:01;98970.75;;;19.11
67515;BMP280;60646;55.802;37.032;2023-07-31T01:46:27;98969.72;;;19.06
67515;BMP280;60646;55.802;37.032;2023-07-31T01:48:54;98973.88;;;19.07
67515;BMP280;60646;55.802;37.032;2023-07-31T01:51:20;98965.44;;;19.03
67515;BMP280;60646;55.802;37.032;2023-07-31T01:53:45;98959.84;;;19.01
67515;BMP280;60646;55.802;37.032;2023-07-31T01:56:11;98966.53;;;19.00
67515;BMP280;60646;55.802;37.032;2023-07-31T01:58:37;98975.28;;;19.08
67515;BMP280;60646;55.802;37.032;2023-07-31T02:01:03;98972.53;;;18.99
67515;BMP280;60646;55.802;37.032;2023-07-31T02:03:29;98968.94;;;18.96
67515;BMP280;60646;55.802;37.032;2023-07-31T02:05:55;98966.22;;;18.96
67515;BMP280;60646;55.802;37.032;2023-07-31T02:08:24;98962.56;;;19.01
67515;BMP280;60646;55.802;37.032;2023-07-31T02:10:51;98965.50;;;18.96
67515;BMP280;60646;55.802;37.032;2023-07-31T02:13:17;98970.50;;;18.99
67515;BMP280;60646;55.802;37.032;2023-07-31T02:15:45;98960.81;;;18.96
67515;BMP280;60646;55.802;37.032;2023-07-31T02:18:11;98965.50;;;18.96
67515;BMP280;60646;55.802;37.032;2023-07-31T02:20:37;98972.78;;;18.93
67515;BMP280;60646;55.802;37.032;2023-07-31T02:23:02;98976.44;;;18.88
67515;BMP280;60646;55.802;37.032;2023-07-31T02:25:28;98968.31;;;18.88
67515;BMP280;60646;55.802;37.032;2023-07-31T02:27:55;98975.28;;;18.91
67515;BMP280;60646;55.802;37.032;2023-07-31T02:30:21;98972.47;;;18.89
67515;BMP280;60646;55.802;37.032;2023-07-31T02:32:47;98980.56;;;18.89
67515;BMP280;60646;55.802;37.032;2023-07-31T02:35:13;98976.56;;;18.90
67515;BMP280;60646;55.802;37.032;2023-07-31T02:37:42;98993.16;;;18.94
67515;BMP280;60646;55.802;37.032;2023-07-31T02:40:08;98979.13;;;18.88
67515;BMP280;60646;55.802;37.032;2023-07-31T02:42:35;98980.72;;;18.91
67515;BMP280;60646;55.802;37.032;2023-07-31T02:45:01;98969.88;;;18.91
67515;BMP280;60646;55.802;37.032;2023-07-31T02:47:31;98988.19;;;19.00
67515;BMP280;60646;55.802;37.032;2023-07-31T02:49:57;98969.13;;;18.98
67515;BMP280;60646;55.802;37.032;2023-07-31T02:52:23;98960.69;;;18.94
67515;BMP280;60646;55.802;37.032;2023-07-31T02:54:49;98967.44;;;19.03
67515;BMP280;60646;55.802;37.032;2023-07-31T02:57:14;98966.53;;;19.00
67515;BMP280;60646;55.802;37.032;2023-07-31T02:59:41;98967.44;;;19.03
67515;BMP280;60646;55.802;37.032;2023-07-31T03:02:07;98962.31;;;19.07
67515;BMP280;60646;55.802;37.032;2023-07-31T03:04:33;98961.72;;;19.08
67515;BMP280;60646;55.802;37.032;2023-07-31T03:06:59;98963.91;;;19.10
67515;BMP280;60646;55.802;37.032;2023-07-31T03:09:26;98980.38;;;19.21
67515;BMP280;60646;55.802;37.032;2023-07-31T03:11:52;98974.63;;;19.17
67515;BMP280;60646;55.802;37.032;2023-07-31T03:14:18;98970.66;;;19.18
67515;BMP280;60646;55.802;37.032;2023-07-31T03:16:44;98975.41;;;19.27
67515;BMP280;60646;55.802;37.032;2023-07-31T03:19:10;98960.13;;;19.22
67515;BMP280;60646;55.802;37.032;2023-07-31T03:21:36;98968.31;;;19.32
67515;BMP280;60646;55.802;37.032;2023-07-31T03:24:02;98967.50;;;19.39
67515;BMP280;60646;55.802;37.032;2023-07-31T03:26:28;98967.91;;;19.35
67515;BMP280;60646;55.802;37.032;2023-07-31T03:28:56;98972.66;;;19.44
67515;BMP280;60646;55.802;37.032;2023-07-31T03:31:22;98970.97;;;19.49
67515;BMP280;60646;55.802;37.032;2023-07-31T03:33:48;98968.44;;;19.51
67515;BMP280;60646;55.802;37.032;2023-07-31T03:36:14;98976.44;;;19.58
67515;BMP280;60646;55.802;37.032;2023-07-31T03:38:40;98980.91;;;19.64
67515;BMP280;60646;55.802;37.032;2023-07-31T03:41:07;98966.22;;;19.67
67515;BMP280;60646;55.802;37.032;2023-07-31T03:43:33;98959.22;;;19.64
67515;BMP280;60646;55.802;37.032;2023-07-31T03:46:02;98972.09;;;19.73
67515;BMP280;60646;55.802;37.032;2023-07-31T03:48:28;98966.97;;;19.77
67515;BMP280;60646;55.802;37.032;2023-07-31T03:50:54;98956.44;;;19.81
67515;BMP280;60646;55.802;37.032;2023-07-31T03:53:21;98967.91;;;19.89
67515;BMP280;60646;55.802;37.032;2023-07-31T03:55:47;98968.34;;;19.95
67515;BMP280;60646;55.802;37.032;2023-07-31T03:58:13;98967.94;;;19.98
67515;BMP280;60646;55.802;37.032;2023-07-31T04:00:40;98962.91;;;20.04
67515;BMP280;60646;55.802;37.032;2023-07-31T04:03:06;98967.91;;;20.08
67515;BMP280;60646;55.802;37.032;2023-07-31T04:05:32;98986.53;;;20.21
67515;BMP280;60646;55.802;37.032;2023-07-31T04:07:58;98965.66;;;20.14
67515;BMP280;60646;55.802;37.032;2023-07-31T04:10:24;98983.28;;;20.32
67515;BMP280;60646;55.802;37.032;2023-07-31T04:12:50;98979.13;;;20.31
67515;BMP280;60646;55.802;37.032;2023-07-31T04:15:16;98978.00;;;20.34
67515;BMP280;60646;55.802;37.032;2023-07-31T04:17:42;98981.88;;;20.41
67515;BMP280;60646;55.802;37.032;2023-07-31T04:20:08;98984.28;;;20.46
67515;BMP280;60646;55.802;37.032;2023-07-31T04:22:34;98981.75;;;20.48
67515;BMP280;60646;55.802;37.032;2023-07-31T04:25:00;98993.88;;;20.57
67515;BMP280;60646;55.802;37.032;2023-07-31T04:27:26;98995.63;;;20.62
67515;BMP280;60646;55.802;37.032;2023-07-31T04:29:52;98985.59;;;20.64
67515;BMP280;60646;55.802;37.032;2023-07-31T04:32:17;98987.72;;;20.75
67515;BMP280;60646;55.802;37.032;2023-07-31T04:34:44;98993.75;;;20.83
67515;BMP280;60646;55.802;37.032;2023-07-31T04:37:10;98984.59;;;20.88
67515;BMP280;60646;55.802;37.032;2023-07-31T04:39:36;98987.16;;;20.96
67515;BMP280;60646;55.802;37.032;2023-07-31T04:42:02;98977.16;;;20.98
67515;BMP280;60646;55.802;37.032;2023-07-31T04:44:28;98977.28;;;21.10
67515;BMP280;60646;55.802;37.032;2023-07-31T04:46:54;98990.84;;;21.20
67515;BMP280;60646;55.802;37.032;2023-07-31T04:49:20;98991.53;;;21.30
67515;BMP280;60646;55.802;37.032;2023-07-31T04:51:46;98992.81;;;21.38
67515;BMP280;60646;55.802;37.032;2023-07-31T04:54:12;98998.63;;;21.44
67515;BMP280;60646;55.802;37.032;2023-07-31T04:56:40;98994.47;;;21.53
67515;BMP280;60646;55.802;37.032;2023-07-31T04:59:07;99001.47;;;21.65
67515;BMP280;60646;55.802;37.032;2023-07-31T05:01:32;98994.13;;;21.68
67515;BMP280;60646;55.802;37.032;2023-07-31T05:03:58;99000.25;;;21.78
67515;BMP280;60646;55.802;37.032;2023-07-31T05:06:24;98985.75;;;21.85
67515;BMP280;60646;55.802;37.032;2023-07-31T05:08:50;98987.00;;;21.93
67515;BMP280;60646;55.802;37.032;2023-07-31T05:11:16;98974.25;;;21.96
67515;BMP280;60646;55.802;37.032;2023-07-31T05:13:43;98998.03;;;22.17
67515;BMP280;60646;55.802;37.032;2023-07-31T05:16:08;98997.72;;;22.22
67515;BMP280;60646;55.802;37.032;2023-07-31T05:18:34;98989.00;;;22.24
67515;BMP280;60646;55.802;37.032;2023-07-31T05:21:00;98993.91;;;22.37
67515;BMP280;60646;55.802;37.032;2023-07-31T05:23:26;98991.13;;;22.46
67515;BMP280;60646;55.802;37.032;2023-07-31T05:25:51;98991.03;;;22.56
67515;BMP280;60646;55.802;37.032;2023-07-31T05:28:17;98983.84;;;22.60
67515;BMP280;60646;55.802;37.032;2023-07-31T05:30:43;98999.28;;;22.79
67515;BMP280;60646;55.802;37.032;2023-07-31T05:33:09;98991.38;;;22.83
67515;BMP280;60646;55.802;37.032;2023-07-31T05:35:34;98992.59;;;22.92
67515;BMP280;60646;55.802;37.032;2023-07-31T05:38:01;98990.38;;;23.00
67515;BMP280;60646;55.802;37.032;2023-07-31T05:40:27;98988.28;;;23.10
67515;BMP280;60646;55.802;37.032;2023-07-31T05:42:53;98995.63;;;23.19
67515;BMP280;60646;55.802;37.032;2023-07-31T05:45:19;99000.28;;;23.28
67515;BMP280;60646;55.802;37.032;2023-07-31T05:47:45;98998.03;;;23.36
67515;BMP280;60646;55.802;37.032;2023-07-31T05:50:10;98986.16;;;23.43
67515;BMP280;60646;55.802;37.032;2023-07-31T05:52:36;98985.94;;;23.50
67515;BMP280;60646;55.802;37.032;2023-07-31T05:55:02;98995.66;;;23.65
67515;BMP280;60646;55.802;37.032;2023-07-31T05:57:29;98991.84;;;23.70
67515;BMP280;60646;55.802;37.032;2023-07-31T05:59:55;98992.22;;;23.76
67515;BMP280;60646;55.802;37.032;2023-07-31T06:02:21;98990.16;;;23.88
67515;BMP280;60646;55.802;37.032;2023-07-31T06:04:47;98991.22;;;23.95
67515;BMP280;60646;55.802;37.032;2023-07-31T06:07:21;98999.53;;;24.08
67515;BMP280;60646;55.802;37.032;2023-07-31T06:16:35;98960.09;;;24.23
67515;BMP280;60646;55.802;37.032;2023-07-31T06:19:14;98958.91;;;24.26
67515;BMP280;60646;55.802;37.032;2023-07-31T06:24:48;98974.78;;;24.55
67515;BMP280;60646;55.802;37.032;2023-07-31T06:27:33;98957.72;;;24.54
67515;BMP280;60646;55.802;37.032;2023-07-31T06:30:02;98985.59;;;24.78
67515;BMP280;60646;55.802;37.032;2023-07-31T06:32:30;98983.13;;;24.82
67515;BMP280;60646;55.802;37.032;2023-07-31T06:34:56;98997.63;;;24.98
67515;BMP280;60646;55.802;37.032;2023-07-31T06:37:22;98999.34;;;25.05
67515;BMP280;60646;55.802;37.032;2023-07-31T06:39:48;98987.00;;;25.04
67515;BMP280;60646;55.802;37.032;2023-07-31T06:42:14;98995.63;;;25.12
67515;BMP280;60646;55.802;37.032;2023-07-31T06:44:40;99004.59;;;25.26
67515;BMP280;60646;55.802;37.032;2023-07-31T06:47:07;98999.41;;;25.32
67515;BMP280;60646;55.802;37.032;2023-07-31T06:49:33;99005.19;;;25.38
67515;BMP280;60646;55.802;37.032;2023-07-31T06:51:59;98997.09;;;25.40
67515;BMP280;60646;55.802;37.032;2023-07-31T06:54:24;98991.81;;;25.44
67515;BMP280;60646;55.802;37.032;2023-07-31T06:56:50;98996.69;;;25.59
67515;BMP280;60646;55.802;37.032;2023-07-31T06:59:16;99001.13;;;25.66
67515;BMP280;60646;55.802;37.032;2023-07-31T07:01:41;99003.47;;;25.72
67515;BMP280;60646;55.802;37.032;2023-07-31T07:04:07;99007.22;;;25.78
67515;BMP280;60646;55.802;37.032;2023-07-31T07:06:34;99001.94;;;25.82
67515;BMP280;60646;55.802;37.032;2023-07-31T07:08:59;98989.97;;;25.89
67515;BMP280;60646;55.802;37.032;2023-07-31T07:11:25;98990.16;;;25.93
67515;BMP280;60646;55.802;37.032;2023-07-31T07:13:51;98996.81;;;26.04
67515;BMP280;60646;55.802;37.032;2023-07-31T07:16:17;99001.88;;;26.09
67515;BMP280;60646;55.802;37.032;2023-07-31T07:18:43;99005.13;;;26.19
67515;BMP280;60646;55.802;37.032;2023-07-31T07:21:27;99004.06;;;26.26
67515;BMP280;60646;55.802;37.032;2023-07-31T07:23:53;99002.34;;;26.33
67515;BMP280;60646;55.802;37.032;2023-07-31T07:26:19;98992.16;;;26.35
67515;BMP280;60646;55.802;37.032;2023-07-31T07:28:45;98984.06;;;26.38
67515;BMP280;60646;55.802;37.032;2023-07-31T07:31:11;98995.47;;;26.48
67515;BMP280;60646;55.802;37.032;2023-07-31T07:33:37;99002.84;;;26.59
67515;BMP280;60646;55.802;37.032;2023-07-31T07:36:02;99004.44;;;26.64
67515;BMP280;60646;55.802;37.032;2023-07-31T07:38:28;98994.91;;;26.65
67515;BMP280;60646;55.802;37.032;2023-07-31T07:40:54;98979.25;;;26.67
67515;BMP280;60646;55.802;37.032;2023-07-31T07:43:20;98987.75;;;26.73
67515;BMP280;60646;55.802;37.032;2023-07-31T07:45:45;98991.66;;;26.84
67515;BMP280;60646;55.802;37.032;2023-07-31T07:48:11;98991.84;;;26.88
67515;BMP280;60646;55.802;37.032;2023-07-31T07:50:38;99000.53;;;26.98
67515;BMP280;60646;55.802;37.032;2023-07-31T07:53:04;98993.34;;;27.06
67515;BMP280;60646;55.802;37.032;2023-07-31T07:55:29;98999.81;;;27.13
67515;BMP280;60646;55.802;37.032;2023-07-31T07:57:55;98988.13;;;27.12
67515;BMP280;60646;55.802;37.032;2023-07-31T08:00:21;98983.72;;;27.21
67515;BMP280;60646;55.802;37.032;2023-07-31T08:02:47;98995.56;;;27.25
67515;BMP280;60646;55.802;37.032;2023-07-31T08:05:13;98999.53;;;27.38
67515;BMP280;60646;55.802;37.032;2023-07-31T08:07:38;99003.22;;;27.45
67515;BMP280;60646;55.802;37.032;2023-07-31T08:10:04;98993.41;;;27.40
67515;BMP280;60646;55.802;37.032;2023-07-31T08:12:31;98997.47;;;27.54
67515;BMP280;60646;55.802;37.032;2023-07-31T08:14:57;99005.25;;;27.60
67515;BMP280;60646;55.802;37.032;2023-07-31T08:17:23;99002.03;;;27.65
67515;BMP280;60646;55.802;37.032;2023-07-31T08:19:49;99001.50;;;27.69
67515;BMP280;60646;55.802;37.032;2023-07-31T08:22:14;99005.91;;;27.76
67515;BMP280;60646;55.802;37.032;2023-07-31T08:24:40;99012.25;;;27.80
67515;BMP280;60646;55.802;37.032;2023-07-31T08:27:06;99000.59;;;27.80
67515;BMP280;60646;55.802;37.032;2023-07-31T08:29:32;99014.00;;;27.89
67515;BMP280;60646;55.802;37.032;2023-07-31T08:31:57;99002.31;;;27.89
67515;BMP280;60646;55.802;37.032;2023-07-31T08:34:23;99007.59;;;28.00
67515;BMP280;60646;55.802;37.032;2023-07-31T08:36:49;99010.59;;;28.06
67515;BMP280;60646;55.802;37.032;2023-07-31T08:39:15;99009.41;;;28.11
67515;BMP280;60646;55.802;37.032;2023-07-31T08:41:40;99015.13;;;28.17
67515;BMP280;60646;55.802;37.032;2023-07-31T08:44:10;99004.31;;;28.21
67515;BMP280;60646;55.802;37.032;2023-07-31T08:46:37;99005.88;;;28.26
67515;BMP280;60646;55.802;37.032;2023-07-31T08:49:07;99013.09;;;28.35
67515;BMP280;60646;55.802;37.032;2023-07-31T08:51:36;99010.59;;;28.42
67515;BMP280;60646;55.802;37.032;2023-07-31T08:54:02;99005.16;;;28.44
67515;BMP280;60646;55.802;37.032;2023-07-31T08:56:32;99011.03;;;28.54
67515;BMP280;60646;55.802;37.032;2023-07-31T08:59:00;99008.38;;;28.56
67515;BMP280;60646;55.802;37.032;2023-07-31T09:01:29;99023.88;;;28.67
67515;BMP280;60646;55.802;37.032;2023-07-31T09:03:59;99013.75;;;28.71
67515;BMP280;60646;55.802;37.032;2023-07-31T09:06:28;99018.16;;;28.78
67515;BMP280;60646;55.802;37.032;2023-07-31T09:08:55;99018.91;;;28.81
67515;BMP280;60646;55.802;37.032;2023-07-31T09:11:21;99014.75;;;28.80
67515;BMP280;60646;55.802;37.032;2023-07-31T09:13:47;99019.84;;;28.87
67515;BMP280;60646;55.802;37.032;2023-07-31T09:16:14;99002.66;;;28.87
67515;BMP280;60646;55.802;37.032;2023-07-31T09:18:53;99013.50;;;29.02
67515;BMP280;60646;55.802;37.032;2023-07-31T09:21:20;99016.25;;;29.02
67515;BMP280;60646;55.802;37.032;2023-07-31T09:23:47;99005.91;;;29.01
67515;BMP280;60646;55.802;37.032;2023-07-31T09:26:32;99006.19;;;29.09
67515;BMP280;60646;55.802;37.032;2023-07-31T09:29:05;99024.44;;;29.20
67515;BMP280;60646;55.802;37.032;2023-07-31T09:31:43;99015.06;;;29.27
67515;BMP280;60646;55.802;37.032;2023-07-31T09:34:09;99019.09;;;29.24
67515;BMP280;60646;55.802;37.032;2023-07-31T09:36:44;99007.03;;;29.33
67515;BMP280;60646;55.802;37.032;2023-07-31T09:39:11;99016.97;;;29.42
67515;BMP280;60646;55.802;37.032;2023-07-31T09:41:48;99026.94;;;29.51
67515;BMP280;60646;55.802;37.032;2023-07-31T09:44:18;99011.78;;;29.52
67515;BMP280;60646;55.802;37.032;2023-07-31T09:47:22;99026.94;;;29.73
67515;BMP280;60646;55.802;37.032;2023-07-31T09:49:52;99005.28;;;29.63
67515;BMP280;60646;55.802;37.032;2023-07-31T09:52:18;99012.38;;;29.70
67515;BMP280;60646;55.802;37.032;2023-07-31T09:54:44;99019.09;;;29.65
67515;BMP280;60646;55.802;37.032;2023-07-31T09:57:10;99009.22;;;29.58
67515;BMP280;60646;55.802;37.032;2023-07-31T09:59:37;99016.28;;;29.63
67515;BMP280;60646;55.802;37.032;2023-07-31T10:02:03;99016.53;;;29.50
67515;BMP280;60646;55.802;37.032;2023-07-31T10:04:30;99014.41;;;29.48
67515;BMP280;60646;55.802;37.032;2023-07-31T10:06:56;99009.41;;;29.42
67515;BMP280;60646;55.802;37.032;2023-07-31T10:09:25;99022.78;;;29.52
67515;BMP280;60646;55.802;37.032;2023-07-31T10:11:56;99015.19;;;29.51
67515;BMP280;60646;55.802;37.032;2023-07-31T10:14:26;99023.56;;;29.55
67515;BMP280;60646;55.802;37.032;2023-07-31T10:16:53;99026.47;;;29.59
67515;BMP280;60646;55.802;37.032;2023-07-31T10:19:19;99009.94;;;29.59
67515;BMP280;60646;55.802;37.032;2023-07-31T10:21:46;99013.66;;;29.67
67515;BMP280;60646;55.802;37.032;2023-07-31T10:24:14;99021.75;;;29.83
67515;BMP280;60646;55.802;37.032;2023-07-31T10:26:42;99014.16;;;29.83
67515;BMP280;60646;55.802;37.032;2023-07-31T10:29:10;99018.75;;;29.96
67515;BMP280;60646;55.802;37.032;2023-07-31T10:31:36;99015.47;;;30.02
67515;BMP280;60646;55.802;37.032;2023-07-31T10:34:02;99015.25;;;30.17
67515;BMP280;60646;55.802;37.032;2023-07-31T10:36:29;99018.34;;;30.27
67515;BMP280;60646;55.802;37.032;2023-07-31T10:38:55;99022.78;;;30.38
67515;BMP280;60646;55.802;37.032;2023-07-31T10:41:31;99020.38;;;30.50
67515;BMP280;60646;55.802;37.032;2023-07-31T10:44:01;99011.53;;;30.54
67515;BMP280;60646;55.802;37.032;2023-07-31T10:46:28;99019.22;;;30.57
67515;BMP280;60646;55.802;37.032;2023-07-31T10:48:58;99022.38;;;30.72
67515;BMP280;60646;55.802;37.032;2023-07-31T10:51:32;99031.16;;;30.90
67515;BMP280;60646;55.802;37.032;2023-07-31T10:54:14;99022.69;;;30.84
67515;BMP280;60646;55.802;37.032;2023-07-31T10:56:45;99021.25;;;30.81
67515;BMP280;60646;55.802;37.032;2023-07-31T10:59:11;99022.66;;;30.82
67515;BMP280;60646;55.802;37.032;2023-07-31T11:01:53;99011.84;;;30.90
67515;BMP280;60646;55.802;37.032;2023-07-31T11:04:26;99034.63;;;30.90
67515;BMP280;60646;55.802;37.032;2023-07-31T11:07:00;99033.63;;;30.80
67515;BMP280;60646;55.802;37.032;2023-07-31T11:09:28;99038.22;;;30.71
67515;BMP280;60646;55.802;37.032;2023-07-31T11:11:56;99033.06;;;30.59
67515;BMP280;60646;55.802;37.032;2023-07-31T11:14:23;99027.25;;;30.49
67515;BMP280;60646;55.802;37.032;2023-07-31T11:16:51;99029.91;;;30.45
67515;BMP280;60646;55.802;37.032;2023-07-31T11:19:26;99029.00;;;30.39
67515;BMP280;60646;55.802;37.032;2023-07-31T11:21:52;99026.59;;;30.27
67515;BMP280;60646;55.802;37.032;2023-07-31T11:24:19;99024.16;;;30.16
67515;BMP280;60646;55.802;37.032;2023-07-31T11:26:52;99023.00;;;30.23
67515;BMP280;60646;55.802;37.032;2023-07-31T11:29:20;99024.88;;;30.16
67515;BMP280;60646;55.802;37.032;2023-07-31T11:31:47;99021.53;;;30.20
67515;BMP280;60646;55.802;37.032;2023-07-31T11:34:13;99007.06;;;30.19
67515;BMP280;60646;55.802;37.032;2023-07-31T11:36:39;99001.66;;;30.23
67515;BMP280;60646;55.802;37.032;2023-07-31T11:39:08;99023.03;;;30.46
67515;BMP280;60646;55.802;37.032;2023-07-31T11:41:34;99010.72;;;30.49
67515;BMP280;60646;55.802;37.032;2023-07-31T11:44:01;99016.56;;;30.61
67515;BMP280;60646;55.802;37.032;2023-07-31T11:46:30;99012.81;;;30.75
67515;BMP280;60646;55.802;37.032;2023-07-31T11:49:00;99004.53;;;30.75
67515;BMP280;60646;55.802;37.032;2023-07-31T11:51:27;99007.44;;;30.81
67515;BMP280;60646;55.802;37.032;2023-07-31T11:53:57;99003.38;;;30.84
67515;BMP280;60646;55.802;37.032;2023-07-31T11:56:24;99004.94;;;30.89
67515;BMP280;60646;55.802;37.032;2023-07-31T11:58:58;99005.81;;;30.97
67515;BMP280;60646;55.802;37.032;2023-07-31T12:01:25;99016.38;;;31.05
67515;BMP280;60646;55.802;37.032;2023-07-31T12:03:53;99012.44;;;31.12
67515;BMP280;60646;55.802;37.032;2023-07-31T12:06:19;99023.09;;;31.23
67515;BMP280;60646;55.802;37.032;2023-07-31T12:08:48;98999.50;;;31.18
67515;BMP280;60646;55.802;37.032;2023-07-31T12:11:14;99017.13;;;31.33
67515;BMP280;60646;55.802;37.032;2023-07-31T12:13:41;99026.88;;;31.36
67515;BMP280;60646;55.802;37.032;2023-07-31T12:16:07;99013.56;;;31.28
67515;BMP280;60646;55.802;37.032;2023-07-31T12:18:35;99019.94;;;31.35
67515;BMP280;60646;55.802;37.032;2023-07-31T12:21:02;99005.81;;;31.23
67515;BMP280;60646;55.802;37.032;2023-07-31T12:23:34;99015.66;;;31.30
67515;BMP280;60646;55.802;37.032;2023-07-31T12:26:08;99023.78;;;31.24
67515;BMP280;60646;55.802;37.032;2023-07-31T12:28:40;99034.91;;;31.26
67515;BMP280;60646;55.802;37.032;2023-07-31T12:31:09;99026.41;;;31.18
67515;BMP280;60646;55.802;37.032;2023-07-31T12:33:39;99019.19;;;31.07
67515;BMP280;60646;55.802;37.032;2023-07-31T12:36:11;99020.63;;;31.08
67515;BMP280;60646;55.802;37.032;2023-07-31T12:38:37;99046.88;;;31.09
67515;BMP280;60646;55.802;37.032;2023-07-31T12:41:03;99049.28;;;30.97
67515;BMP280;60646;55.802;37.032;2023-07-31T12:43:29;99054.59;;;30.89
67515;BMP280;60646;55.802;37.032;2023-07-31T12:45:55;99052.38;;;30.83
67515;BMP280;60646;55.802;37.032;2023-07-31T12:48:22;99048.44;;;30.67
67515;BMP280;60646;55.802;37.032;2023-07-31T12:50:48;99069.06;;;30.64
67515;BMP280;60646;55.802;37.032;2023-07-31T12:53:15;99061.81;;;30.52
67515;BMP280;60646;55.802;37.032;2023-07-31T12:55:41;99055.75;;;30.34
67515;BMP280;60646;55.802;37.032;2023-07-31T12:58:06;99056.09;;;30.23
67515;BMP280;60646;55.802;37.032;2023-07-31T13:00:32;99056.53;;;30.15
67515;BMP280;60646;55.802;37.032;2023-07-31T13:02:59;99068.78;;;30.10
67515;BMP280;60646;55.802;37.032;2023-07-31T13:05:26;99069.84;;;30.01
67515;BMP280;60646;55.802;37.032;2023-07-31T13:07:52;99068.34;;;29.96
67515;BMP280;60646;55.802;37.032;2023-07-31T13:10:18;99057.06;;;29.88
67515;BMP280;60646;55.802;37.032;2023-07-31T13:12:45;99059.72;;;29.86
67515;BMP280;60646;55.802;37.032;2023-07-31T13:15:47;99064.69;;;29.90
67515;BMP280;60646;55.802;37.032;2023-07-31T13:18:06;99057.56;;;29.83
67515;BMP280;60646;55.802;37.032;2023-07-31T13:20:32;99049.22;;;29.81
67515;BMP280;60646;55.802;37.032;2023-07-31T13:22:58;99045.75;;;29.80
67515;BMP280;60646;55.802;37.032;2023-07-31T13:25:23;99055.69;;;29.89
67515;BMP280;60646;55.802;37.032;2023-07-31T13:27:49;99051.63;;;29.90
67515;BMP280;60646;55.802;37.032;2023-07-31T13:30:15;99054.63;;;29.98
67515;BMP280;60646;55.802;37.032;2023-07-31T13:32:41;99062.31;;;30.02
67515;BMP280;60646;55.802;37.032;2023-07-31T13:35:07;99070.69;;;30.06
67515;BMP280;60646;55.802;37.032;2023-07-31T13:37:34;99053.19;;;29.97
67515;BMP280;60646;55.802;37.032;2023-07-31T13:40:00;99057.56;;;30.04
67515;BMP280;60646;55.802;37.032;2023-07-31T13:42:26;99054.88;;;30.06
67515;BMP280;60646;55.802;37.032;2023-07-31T13:44:54;99059.16;;;30.11
67515;BMP280;60646;55.802;37.032;2023-07-31T13:47:21;99052.97;;;30.11
67515;BMP280;60646;55.802;37.032;2023-07-31T13:49:47;99057.09;;;30.12
67515;BMP280;60646;55.802;37.032;2023-07-31T13:52:13;99050.88;;;30.11
67515;BMP280;60646;55.802;37.032;2023-07-31T13:54:38;99053.84;;;30.17
67515;BMP280;60646;55.802;37.032;2023-07-31T13:57:05;99044.03;;;30.12
67515;BMP280;60646;55.802;37.032;2023-07-31T13:59:30;99044.09;;;30.14
67515;BMP280;60646;55.802;37.032;2023-07-31T14:01:56;99041.94;;;30.11
67515;BMP280;60646;55.802;37.032;2023-07-31T14:04:22;99044.09;;;30.14
67515;BMP280;60646;55.802;37.032;2023-07-31T14:06:48;99053.63;;;30.11
67515;BMP280;60646;55.802;37.032;2023-07-31T14:09:16;99050.78;;;30.07
67515;BMP280;60646;55.802;37.032;2023-07-31T14:11:43;99047.97;;;30.05
67515;BMP280;60646;55.802;37.032;2023-07-31T14:14:09;99061.81;;;30.07